Larkspur, CO

3:30 PM MDT on August 27, 2014 (GMT -0600)
Usaf Academy | Change Station
CLOSE
Current Station
Airport
Location: Air Force Academy,
Elevation: 6572 ft
Nearby Weather Stations

Elev 6572 ft 38.97 °N, 104.81 °W | Updated 32 minutes ago

Partly Cloudy
Partly Cloudy
75 °F
Feels Like 75 °F
N
10
Wind Variable Wind from SSE

Today
High -- | Low -- °F
--% Chance of Precip.
Yesterday
High -- | Low -- °F
Precip. -- in
6:23 AM 7:37 PM
Waxing Crescent, 5% visible
Pressure 29.92 in
Visibility 10.0 miles
Clouds Few 10000 ft
Dew Point 48 °F
Humidity 39%
Rainfall 0.00 in
Snow Depth Not available.
UV 8 out of 12
Pollen 8.10 out of 12
Ozone Good
PM2.5 Good
Flu Activity Not available.
METAR KAFF 272058Z AUTO 15009KT 10SM FEW100 24/09 A3016 RMK AO2 SLP132 T02370088 57018

More Conditions Fewer Conditions

Pressure 29.92 in
Visibility 10.0 miles
Clouds Few 10000 ft
Dew Point 48 °F
Humidity 39%
Rainfall 0.00 in
Snow Depth Not available.
UV 8 out of 12
Pollen 8.10 out of 12
Ozone Good
PM2.5 Good
Flu Activity Not available.
METAR KAFF 272058Z AUTO 15009KT 10SM FEW100 24/09 A3016 RMK AO2 SLP132 T02370088 57018

More Conditions Fewer Conditions

Nowcast | as of 3:11 PM MDT on August 27, 2014

An area of showers and thunderstorms will move east across the foothills and spread onto the Front Range I-25 urban corridor and adjacent plains late this afternoon. The storms will produce heavy rain...small hail...and frequent cloud to ground lightning. One or two storms may become severe with large hail. Move indoors as storms approach your area.

×

10-Day Weather Forecast

Almanac

Astronomy

Aug. 27, 2014 Rise Set
Actual Time 6:23 AM MDT 7:37 PM MDT
Civil Twilight 5:55 AM MDT 8:05 PM MDT
Nautical Twilight 5:22 AM MDT 8:38 PM MDT
Astronomical Twilight 4:47 AM MDT 9:13 PM MDT
Moon 8:21 AM MDT 8:32 PM MDT
Length of Visible Light 14h 09m
Length of Day
13h 14m
Tomorrow will be 2m 25s shorter.
Waxing Crescent, 5% of the Moon is Illuminated
Today
Waxing Crescent
Sep 2
First Quarter
Sep 8
Full
Sep 15
Last Quarter
Sep 24
New

Today's Extremes

State Highs State Lows

Community

WunderPhotos

Upload Photos

1,747,791 photos uploaded!

Nearby

Air Quality

  Air Quality AQ Index Pollutant
Yesterday Good
OZONE
Yesterday Good
PM2.5
Current Good
OZONE
Current Good
PM2.5
Wednesday Good
PM2.5
Wednesday Good
OZONE
Thursday Good
PM2.5
Thursday Good
OZONE

Snow Depth

Station Depth Elevation
Echo Lake 0 in 10600 ft
Jackwhacker Gulch 0 in 10960 ft
Berthoud Summit 0 in 11300 ft
Hoosier Pass 0 in 11400 ft
Rough And Tumble 1 in 10360 ft

Earthquake Activity

City Distance Mag. Time & Date
No recent earthquake activity has been reported nearby.
Minimum magnitude displayed is 2.5.

Coastal Water Temperatures

Place Temperature
No Stations Reporting

Nearby Weather Stations